Time;durP1;ratioP1;P1;durP2;ratioP2;P2;SDS_P1;SDS_P2;PMS_P1;PMS_P2;Temp;Humidity;BMP_temperature;BMP_pressure;BME280_temperature;BME280_humidity;BME280_pressure;Samples;Min_cycle;Max_cycle;Signal;HPM_P1;HPM_P2
2022/01/19 00:01:35;;;;;;;36.15;22.50;;;;;;;;;;4877641;29;20044;-73
2022/01/19 00:04:02;;;;;;;36.20;21.05;;;;;;;;;;4876283;29;20057;-71
2022/01/19 00:06:28;;;;;;;34.53;19.75;;;;;;;;;;4878008;29;20045;-72
2022/01/19 00:08:54;;;;;;;32.22;21.00;;;;;;;;;;4862864;29;20059;-73
2022/01/19 00:11:20;;;;;;;32.97;20.00;;;;;;;;;;4862204;29;20079;-71
2022/01/19 00:13:47;;;;;;;34.40;21.50;;;;;;;;;;4877623;29;20547;-73
2022/01/19 00:16:13;;;;;;;31.63;21.48;;;;;;;;;;4878869;29;20048;-72
2022/01/19 00:18:39;;;;;;;32.97;21.58;;;;;;;;;;4878430;29;20136;-72
2022/01/19 00:21:05;;;;;;;34.30;21.80;;;;;;;;;;4877943;29;20346;-72
2022/01/19 00:23:31;;;;;;;36.10;21.83;;;;;;;;;;4879046;29;20065;-73
2022/01/19 00:25:57;;;;;;;32.70;20.52;;;;;;;;;;4877882;29;20480;-73
2022/01/19 00:28:24;;;;;;;32.92;21.92;;;;;;;;;;4877711;29;20060;-73
2022/01/19 00:30:50;;;;;;;32.22;20.92;;;;;;;;;;4877310;29;20070;-71
2022/01/19 00:33:19;;;;;;;34.05;19.15;;;;;;;;;;4877833;29;20048;-72
2022/01/19 00:35:45;;;;;;;33.35;19.50;;;;;;;;;;4878594;29;20452;-72
2022/01/19 00:38:11;;;;;;;33.85;20.83;;;;;;;;;;4878588;29;20109;-72
2022/01/19 00:40:38;;;;;;;38.33;23.45;;;;;;;;;;4878600;29;20057;-73
2022/01/19 00:43:04;;;;;;;37.05;22.17;;;;;;;;;;4876617;29;20057;-72
2022/01/19 00:45:30;;;;;;;33.05;21.05;;;;;;;;;;4879092;29;20060;-72
2022/01/19 00:47:57;;;;;;;33.30;20.90;;;;;;;;;;4878328;29;20120;-72
2022/01/19 00:50:24;;;;;;;35.40;22.17;;;;;;;;;;4878653;29;20075;-73
2022/01/19 00:52:51;;;;;;;35.95;22.63;;;;;;;;;;4878669;29;20060;-71
2022/01/19 00:55:18;;;;;;;32.92;21.95;;;;;;;;;;4877447;29;20384;-71
2022/01/19 00:57:44;;;;;;;37.45;19.98;;;;;;;;;;4876240;29;20059;-73
2022/01/19 01:00:12;;;;;;;38.10;20.50;;;;;;;;;;4878468;29;20049;-71
2022/01/19 01:02:38;;;;;;;35.47;20.67;;;;;;;;;;4892117;29;20053;-72
2022/01/19 01:05:05;;;;;;;34.40;20.40;;;;;;;;;;4879325;29;20049;-72
2022/01/19 01:07:33;;;;;;;34.05;20.23;;;;;;;;;;4878011;29;20124;-72
2022/01/19 01:10:00;;;;;;;34.78;20.50;;;;;;;;;;4881773;29;20053;-73
2022/01/19 01:12:43;;;;;;;35.22;20.25;;;;;;;;;;4880556;29;20461;-72
2022/01/19 01:18:19;;;;;;;31.80;18.10;;;;;;;;;;4883964;29;20067;-72
2022/01/19 01:20:46;;;;;;;33.42;18.05;;;;;;;;;;4870812;29;20061;-72
2022/01/19 01:23:12;;;;;;;36.10;18.98;;;;;;;;;;4880715;29;20064;-73
2022/01/19 01:25:39;;;;;;;30.80;18.30;;;;;;;;;;4880917;29;20113;-73
2022/01/19 01:28:05;;;;;;;33.97;20.52;;;;;;;;;;4880657;29;20137;-72
2022/01/19 01:30:31;;;;;;;35.35;21.08;;;;;;;;;;4880159;29;20045;-73
2022/01/19 01:32:57;;;;;;;39.40;22.88;;;;;;;;;;4881688;29;20049;-72
2022/01/19 01:35:23;;;;;;;33.00;21.35;;;;;;;;;;4880360;29;20127;-73
2022/01/19 01:37:49;;;;;;;39.13;22.73;;;;;;;;;;4881727;29;20045;-72
2022/01/19 01:40:16;;;;;;;40.75;22.48;;;;;;;;;;4879664;29;20056;-73
2022/01/19 01:42:42;;;;;;;37.05;23.00;;;;;;;;;;4880581;29;20429;-72
2022/01/19 01:45:15;;;;;;;40.70;24.48;;;;;;;;;;4882332;29;20053;-71
2022/01/19 01:47:47;;;;;;;44.13;25.88;;;;;;;;;;4881328;29;20069;-72
2022/01/19 01:55:27;;;;;;;40.42;24.10;;;;;;;;;;4880926;29;20048;-73
2022/01/19 01:57:53;;;;;;;47.65;26.58;;;;;;;;;;4881739;29;20441;-73
2022/01/19 02:00:21;;;;;;;41.95;25.60;;;;;;;;;;4880959;29;20053;-73
2022/01/19 02:02:48;;;;;;;45.70;26.15;;;;;;;;;;4876583;29;20060;-73
2022/01/19 02:05:14;;;;;;;37.50;20.42;;;;;;;;;;4879304;29;20055;-72
2022/01/19 02:10:16;;;;;;;44.40;23.67;;;;;;;;;;4881609;29;20064;-73
2022/01/19 02:23:48;;;;;;;44.22;23.35;;;;;;;;;;4880036;29;20067;-72
2022/01/19 02:26:22;;;;;;;60.20;26.92;;;;;;;;;;4881056;29;20060;-73
2022/01/19 02:29:01;;;;;;;59.78;25.83;;;;;;;;;;4865312;29;20097;-73
2022/01/19 02:42:53;;;;;;;64.88;24.55;;;;;;;;;;4869021;29;20384;-70
2022/01/19 02:50:33;;;;;;;82.97;26.25;;;;;;;;;;4879050;29;20135;-71
2022/01/19 02:53:00;;;;;;;69.63;24.73;;;;;;;;;;4879758;29;20469;-70
2022/01/19 02:55:26;;;;;;;63.53;23.20;;;;;;;;;;4880784;29;20454;-71
2022/01/19 02:57:52;;;;;;;72.65;27.00;;;;;;;;;;4878641;29;20056;-71
2022/01/19 03:08:50;;;;;;;91.07;31.60;;;;;;;;;;4879165;29;20053;-71
2022/01/19 03:11:17;;;;;;;74.03;29.55;;;;;;;;;;4878532;29;20465;-71
2022/01/19 03:13:44;;;;;;;86.43;30.63;;;;;;;;;;4879009;29;20388;-71
2022/01/19 03:16:10;;;;;;;82.07;30.67;;;;;;;;;;4881126;29;20053;-70
2022/01/19 03:18:36;;;;;;;77.93;29.80;;;;;;;;;;4879259;29;20053;-71
2022/01/19 03:21:03;;;;;;;85.22;30.52;;;;;;;;;;4887224;29;20053;-71
2022/01/19 03:23:29;;;;;;;93.57;31.95;;;;;;;;;;4861530;29;20056;-71
2022/01/19 03:25:57;;;;;;;102.88;32.55;;;;;;;;;;4879283;29;20057;-70
2022/01/19 03:28:23;;;;;;;102.90;31.77;;;;;;;;;;4879317;29;20053;-71
2022/01/19 03:30:49;;;;;;;110.32;33.40;;;;;;;;;;4878998;29;20049;-70
2022/01/19 03:33:16;;;;;;;92.65;30.00;;;;;;;;;;4877916;29;20063;-72
2022/01/19 03:35:43;;;;;;;78.57;26.52;;;;;;;;;;4879588;29;20556;-72
2022/01/19 03:38:10;;;;;;;86.35;28.13;;;;;;;;;;4880046;29;20044;-71
2022/01/19 03:40:36;;;;;;;81.18;28.67;;;;;;;;;;4878742;29;20049;-72
2022/01/19 03:43:06;;;;;;;83.13;28.48;;;;;;;;;;4878423;29;20048;-72
2022/01/19 03:45:33;;;;;;;82.22;29.15;;;;;;;;;;4877843;29;20049;-72
2022/01/19 03:50:46;;;;;;;99.32;29.17;;;;;;;;;;4878308;29;20088;-71
2022/01/19 03:53:12;;;;;;;99.38;31.77;;;;;;;;;;4878608;29;20056;-72
2022/01/19 03:55:38;;;;;;;97.70;33.47;;;;;;;;;;4879534;29;20045;-71
2022/01/19 03:58:04;;;;;;;97.32;30.77;;;;;;;;;;4878930;29;20052;-71
2022/01/19 04:00:34;;;;;;;89.00;29.90;;;;;;;;;;4875742;29;20140;-72
2022/01/19 04:03:01;;;;;;;90.00;30.67;;;;;;;;;;4875620;29;20052;-71
2022/01/19 04:08:12;;;;;;;80.43;29.63;;;;;;;;;;4893682;29;20084;-71
2022/01/19 04:10:39;;;;;;;93.50;32.05;;;;;;;;;;4880090;29;20053;-72
2022/01/19 04:13:24;;;;;;;92.47;30.10;;;;;;;;;;4876737;29;20056;-72
2022/01/19 04:15:51;;;;;;;93.43;29.40;;;;;;;;;;4879018;29;20180;-72
2022/01/19 04:18:17;;;;;;;85.05;28.65;;;;;;;;;;4877545;29;20074;-73
2022/01/19 04:20:47;;;;;;;87.13;29.15;;;;;;;;;;4881095;29;20061;-72
2022/01/19 04:23:13;;;;;;;81.50;27.38;;;;;;;;;;4879497;29;20079;-73
2022/01/19 04:25:39;;;;;;;84.88;28.15;;;;;;;;;;4879656;29;20061;-71
2022/01/19 04:28:07;;;;;;;87.07;28.95;;;;;;;;;;4877118;29;20053;-73
2022/01/19 04:30:34;;;;;;;84.95;27.75;;;;;;;;;;4860729;29;20060;-73
2022/01/19 04:33:10;;;;;;;71.72;28.98;;;;;;;;;;4870195;29;20465;-70
2022/01/19 04:36:19;;;;;;;79.35;26.83;;;;;;;;;;4878469;29;20178;-72
2022/01/19 04:39:07;;;;;;;72.65;27.67;;;;;;;;;;4860312;29;20071;-72
2022/01/19 05:05:37;;;;;;;79.03;26.73;;;;;;;;;;4883434;29;20069;-70
2022/01/19 05:08:14;;;;;;;73.70;24.67;;;;;;;;;;4881855;29;20128;-71
2022/01/19 05:15:51;;;;;;;74.72;25.33;;;;;;;;;;4863675;29;20191;-71
2022/01/19 05:18:18;;;;;;;81.38;27.45;;;;;;;;;;4878196;29;20061;-72
2022/01/19 05:20:48;;;;;;;71.50;26.67;;;;;;;;;;4881483;29;20052;-71
2022/01/19 05:23:14;;;;;;;73.05;27.77;;;;;;;;;;4866065;29;20159;-72
2022/01/19 05:25:41;;;;;;;73.10;25.50;;;;;;;;;;4882883;29;20461;-71
2022/01/19 05:28:07;;;;;;;74.30;26.02;;;;;;;;;;4881810;29;20045;-71
2022/01/19 05:30:33;;;;;;;79.82;26.63;;;;;;;;;;4881191;29;20057;-71
2022/01/19 05:32:59;;;;;;;77.18;26.67;;;;;;;;;;4880038;29;20045;-71
2022/01/19 05:35:27;;;;;;;86.10;27.25;;;;;;;;;;4882742;29;20053;-72
2022/01/19 05:37:53;;;;;;;80.28;27.35;;;;;;;;;;4881512;29;20057;-70
2022/01/19 05:40:19;;;;;;;88.53;27.52;;;;;;;;;;4881441;29;20068;-71
2022/01/19 05:42:49;;;;;;;76.80;27.13;;;;;;;;;;4881130;29;20429;-71
2022/01/19 05:45:16;;;;;;;76.55;26.80;;;;;;;;;;4881072;29;20133;-72
2022/01/19 05:47:42;;;;;;;75.18;27.08;;;;;;;;;;4880545;29;20049;-73
2022/01/19 05:50:08;;;;;;;79.18;27.67;;;;;;;;;;4880169;29;20057;-72
2022/01/19 05:52:34;;;;;;;79.90;27.70;;;;;;;;;;4880315;29;20057;-71
2022/01/19 05:55:00;;;;;;;75.15;27.60;;;;;;;;;;4880938;29;20057;-73
2022/01/19 05:57:26;;;;;;;73.20;28.67;;;;;;;;;;4880949;29;20072;-71
2022/01/19 05:59:52;;;;;;;74.55;27.48;;;;;;;;;;4879697;29;20037;-72
2022/01/19 06:02:18;;;;;;;77.82;28.20;;;;;;;;;;4874700;29;20128;-72
2022/01/19 06:04:44;;;;;;;67.57;25.25;;;;;;;;;;4881430;29;20052;-72
2022/01/19 06:07:12;;;;;;;71.78;26.88;;;;;;;;;;4880350;29;20053;-72
2022/01/19 06:12:08;;;;;;;74.65;29.15;;;;;;;;;;4880955;29;20056;-72
2022/01/19 06:14:35;;;;;;;64.10;25.77;;;;;;;;;;4880940;29;20141;-71
2022/01/19 06:17:02;;;;;;;75.03;27.60;;;;;;;;;;4880612;29;20131;-72
2022/01/19 06:19:28;;;;;;;63.50;25.60;;;;;;;;;;4880618;29;20049;-71
2022/01/19 06:21:54;;;;;;;65.93;26.30;;;;;;;;;;4880661;29;20095;-71
2022/01/19 06:24:21;;;;;;;71.57;27.48;;;;;;;;;;4881589;29;20156;-71
2022/01/19 06:26:47;;;;;;;69.05;26.60;;;;;;;;;;4880435;29;20369;-72
2022/01/19 06:29:13;;;;;;;76.82;26.55;;;;;;;;;;4881618;29;20072;-72
2022/01/19 06:31:39;;;;;;;69.10;27.10;;;;;;;;;;4877843;29;20654;-72
2022/01/19 06:34:05;;;;;;;66.97;26.13;;;;;;;;;;4879753;29;20041;-72
2022/01/19 06:36:31;;;;;;;73.47;29.45;;;;;;;;;;4881440;29;20073;-72
2022/01/19 06:38:57;;;;;;;70.90;27.90;;;;;;;;;;4880289;29;20487;-71
2022/01/19 06:41:23;;;;;;;65.55;27.48;;;;;;;;;;4879961;29;20075;-72
2022/01/19 06:43:50;;;;;;;65.68;25.33;;;;;;;;;;4879324;29;20056;-71
2022/01/19 06:46:16;;;;;;;69.25;27.92;;;;;;;;;;4878360;29;20049;-72
2022/01/19 06:48:43;;;;;;;70.43;26.45;;;;;;;;;;4880403;29;20053;-72
2022/01/19 06:51:09;;;;;;;67.63;26.55;;;;;;;;;;4879868;29;20060;-72
2022/01/19 06:53:35;;;;;;;68.22;27.77;;;;;;;;;;4865301;29;20487;-73
2022/01/19 06:56:01;;;;;;;66.13;27.88;;;;;;;;;;4881097;29;20033;-72
2022/01/19 06:58:28;;;;;;;64.97;26.13;;;;;;;;;;4880626;29;20381;-71
2022/01/19 07:00:55;;;;;;;64.18;26.67;;;;;;;;;;4875772;29;20052;-72
2022/01/19 07:03:21;;;;;;;65.22;27.40;;;;;;;;;;4880639;29;20068;-71
2022/01/19 07:05:47;;;;;;;66.30;26.85;;;;;;;;;;4879512;29;20045;-72
2022/01/19 07:08:15;;;;;;;65.13;27.90;;;;;;;;;;4879923;29;20164;-71
2022/01/19 07:10:41;;;;;;;70.93;27.30;;;;;;;;;;4879378;29;20053;-71
2022/01/19 07:13:08;;;;;;;72.32;28.63;;;;;;;;;;4879242;29;20081;-72
2022/01/19 07:15:36;;;;;;;64.30;27.00;;;;;;;;;;4876980;29;20049;-72
2022/01/19 07:18:02;;;;;;;66.72;25.92;;;;;;;;;;4879781;29;20151;-70
2022/01/19 07:20:28;;;;;;;64.38;27.27;;;;;;;;;;4880078;29;20053;-71
2022/01/19 07:22:56;;;;;;;69.03;27.05;;;;;;;;;;4878444;29;20114;-71
2022/01/19 07:25:22;;;;;;;64.28;28.15;;;;;;;;;;4879805;29;20131;-70
2022/01/19 07:27:48;;;;;;;58.83;27.58;;;;;;;;;;4879352;29;20053;-71
2022/01/19 07:30:14;;;;;;;62.70;27.23;;;;;;;;;;4878956;29;20066;-71
2022/01/19 07:32:42;;;;;;;63.03;28.10;;;;;;;;;;4862778;29;20045;-72
2022/01/19 07:35:09;;;;;;;56.25;25.98;;;;;;;;;;4877781;29;20059;-72
2022/01/19 07:37:35;;;;;;;63.65;28.45;;;;;;;;;;4875712;29;20069;-75
2022/01/19 07:40:01;;;;;;;62.80;27.30;;;;;;;;;;4877866;29;20112;-73
2022/01/19 07:42:27;;;;;;;56.42;26.98;;;;;;;;;;4879379;29;20056;-74
2022/01/19 07:44:54;;;;;;;62.90;28.50;;;;;;;;;;4863750;29;20061;-74
2022/01/19 07:47:20;;;;;;;61.22;28.60;;;;;;;;;;4879457;29;20041;-74
2022/01/19 07:49:46;;;;;;;56.53;28.17;;;;;;;;;;4879724;29;20057;-75
2022/01/19 07:52:12;;;;;;;54.30;25.77;;;;;;;;;;4878669;29;20453;-75
2022/01/19 07:54:39;;;;;;;59.13;29.20;;;;;;;;;;4879332;29;20049;-74
2022/01/19 07:57:05;;;;;;;54.65;25.63;;;;;;;;;;4878953;29;20105;-74
2022/01/19 07:59:31;;;;;;;65.47;28.95;;;;;;;;;;4863940;29;20076;-75
2022/01/19 08:01:57;;;;;;;65.47;27.50;;;;;;;;;;4877871;29;20181;-73
2022/01/19 08:04:23;;;;;;;64.40;29.13;;;;;;;;;;4864540;29;20057;-75
2022/01/19 08:06:54;;;;;;;62.40;27.63;;;;;;;;;;4879366;29;20049;-72
2022/01/19 08:09:23;;;;;;;60.10;27.77;;;;;;;;;;4874230;29;20049;-72
2022/01/19 08:11:50;;;;;;;66.00;28.60;;;;;;;;;;4878783;29;20069;-73
2022/01/19 08:14:16;;;;;;;59.05;28.35;;;;;;;;;;4878948;29;20060;-73
2022/01/19 08:16:42;;;;;;;65.07;27.35;;;;;;;;;;4878644;29;20063;-76
2022/01/19 08:19:09;;;;;;;63.38;27.52;;;;;;;;;;4878919;29;20076;-76
2022/01/19 08:21:37;;;;;;;59.70;29.67;;;;;;;;;;4879154;29;20080;-77
2022/01/19 08:24:04;;;;;;;66.72;28.85;;;;;;;;;;4877774;29;20113;-78
2022/01/19 08:26:30;;;;;;;64.75;29.33;;;;;;;;;;4875069;29;20385;-77
2022/01/19 08:28:56;;;;;;;56.60;27.08;;;;;;;;;;4878839;29;20041;-77
2022/01/19 08:31:22;;;;;;;61.13;27.83;;;;;;;;;;4878923;29;20059;-76
2022/01/19 08:33:48;;;;;;;59.90;27.13;;;;;;;;;;4864306;29;20064;-80
2022/01/19 08:36:16;;;;;;;61.70;28.15;;;;;;;;;;4863801;29;20061;-77
2022/01/19 08:38:42;;;;;;;60.95;28.30;;;;;;;;;;4879438;29;20116;-77
2022/01/19 08:41:09;;;;;;;58.30;26.65;;;;;;;;;;4878851;29;20065;-77
2022/01/19 08:43:35;;;;;;;57.13;28.10;;;;;;;;;;4877947;29;20480;-77
2022/01/19 08:46:01;;;;;;;56.47;27.13;;;;;;;;;;4879654;29;20037;-78
2022/01/19 08:48:27;;;;;;;62.20;29.17;;;;;;;;;;4878442;29;20056;-77
2022/01/19 08:50:54;;;;;;;62.80;29.92;;;;;;;;;;4883857;29;20052;-76
2022/01/19 08:53:21;;;;;;;56.65;28.15;;;;;;;;;;4898273;29;20080;-77
2022/01/19 08:55:47;;;;;;;49.45;26.25;;;;;;;;;;4897871;29;20068;-75
2022/01/19 08:58:14;;;;;;;59.55;28.25;;;;;;;;;;4881497;29;20090;-78
2022/01/19 09:00:41;;;;;;;63.28;31.35;;;;;;;;;;4879371;29;20052;-78
2022/01/19 09:03:07;;;;;;;60.65;30.08;;;;;;;;;;4879423;29;20053;-74
2022/01/19 09:05:33;;;;;;;58.78;27.60;;;;;;;;;;4875579;29;20156;-78
2022/01/19 09:08:00;;;;;;;54.95;27.30;;;;;;;;;;4878791;29;20041;-78
2022/01/19 09:10:26;;;;;;;60.95;28.33;;;;;;;;;;4863290;29;20392;-79
2022/01/19 09:12:52;;;;;;;55.35;26.83;;;;;;;;;;4880397;29;20469;-78
2022/01/19 09:15:19;;;;;;;56.83;27.88;;;;;;;;;;4863861;29;20326;-77
2022/01/19 09:17:45;;;;;;;59.25;28.95;;;;;;;;;;4877402;29;20089;-78
2022/01/19 09:20:12;;;;;;;60.17;25.92;;;;;;;;;;4860867;29;20137;-76
2022/01/19 09:22:39;;;;;;;56.80;28.23;;;;;;;;;;4878374;29;20061;-78
2022/01/19 09:25:06;;;;;;;60.38;28.50;;;;;;;;;;4878102;29;20041;-77
2022/01/19 09:27:33;;;;;;;57.20;27.48;;;;;;;;;;4878892;29;20044;-77
2022/01/19 09:29:59;;;;;;;62.13;29.10;;;;;;;;;;4882209;29;20461;-78
2022/01/19 09:32:26;;;;;;;57.38;27.05;;;;;;;;;;4877689;29;20052;-77
2022/01/19 09:34:56;;;;;;;66.65;29.58;;;;;;;;;;4880145;29;20151;-76
2022/01/19 09:37:23;;;;;;;59.80;28.50;;;;;;;;;;4881364;29;20056;-78
2022/01/19 09:39:50;;;;;;;54.25;27.05;;;;;;;;;;4896977;29;20056;-77
2022/01/19 09:42:16;;;;;;;49.92;26.75;;;;;;;;;;4864094;29;20052;-80
2022/01/19 09:44:42;;;;;;;66.07;30.10;;;;;;;;;;4880790;29;20079;-79
2022/01/19 09:47:08;;;;;;;56.00;28.50;;;;;;;;;;4885336;29;20128;-81
2022/01/19 09:49:34;;;;;;;61.95;28.58;;;;;;;;;;4881221;29;20577;-77
2022/01/19 09:52:01;;;;;;;56.70;27.45;;;;;;;;;;4880371;29;20077;-77
2022/01/19 09:54:29;;;;;;;49.35;27.88;;;;;;;;;;4881708;29;20052;-78
2022/01/19 09:56:56;;;;;;;57.53;28.77;;;;;;;;;;4880001;29;20059;-76
2022/01/19 09:59:22;;;;;;;51.83;28.42;;;;;;;;;;4881646;29;20051;-83
2022/01/19 10:01:54;;;;;;;60.88;32.20;;;;;;;;;;4863285;29;20491;-76
2022/01/19 10:04:21;;;;;;;50.45;28.02;;;;;;;;;;4866862;29;20041;-78
2022/01/19 10:06:47;;;;;;;52.25;27.02;;;;;;;;;;4881296;29;20060;-78
2022/01/19 10:09:13;;;;;;;56.08;28.75;;;;;;;;;;4881301;29;20083;-79
2022/01/19 10:17:06;;;;;;;57.28;28.83;;;;;;;;;;4878385;29;20045;-79
2022/01/19 10:19:37;;;;;;;59.22;29.00;;;;;;;;;;4880105;29;20044;-77
2022/01/19 10:22:09;;;;;;;61.35;29.42;;;;;;;;;;4879936;29;20041;-77
2022/01/19 10:24:51;;;;;;;52.92;27.38;;;;;;;;;;4880405;29;20045;-76
2022/01/19 10:27:22;;;;;;;54.10;29.55;;;;;;;;;;4864306;29;20055;-77
2022/01/19 10:29:53;;;;;;;49.72;26.20;;;;;;;;;;4880179;29;20048;-78
2022/01/19 10:32:20;;;;;;;54.03;27.75;;;;;;;;;;4880483;29;20490;-76
2022/01/19 10:34:46;;;;;;;51.67;28.75;;;;;;;;;;4864149;29;20044;-76
2022/01/19 10:37:12;;;;;;;49.90;26.90;;;;;;;;;;4864913;29;20056;-76
2022/01/19 10:39:38;;;;;;;56.63;29.25;;;;;;;;;;4879119;29;20073;-78
2022/01/19 10:42:09;;;;;;;55.92;28.52;;;;;;;;;;4879197;29;20057;-72
2022/01/19 10:44:35;;;;;;;59.58;29.38;;;;;;;;;;4880017;29;20365;-76
2022/01/19 10:47:01;;;;;;;55.53;27.35;;;;;;;;;;4879089;29;20045;-77
2022/01/19 10:49:27;;;;;;;59.78;30.67;;;;;;;;;;4878573;29;20048;-75
2022/01/19 10:51:58;;;;;;;53.92;29.35;;;;;;;;;;4880986;29;20461;-76
2022/01/19 10:54:31;;;;;;;52.95;28.38;;;;;;;;;;4879939;29;20120;-74
2022/01/19 10:56:58;;;;;;;56.65;26.85;;;;;;;;;;4878771;29;20049;-80
2022/01/19 10:59:29;;;;;;;48.70;26.52;;;;;;;;;;4879233;29;20049;-76
2022/01/19 11:01:56;;;;;;;46.97;23.67;;;;;;;;;;4876933;29;20126;-76
2022/01/19 11:04:22;;;;;;;49.22;25.25;;;;;;;;;;4879269;29;20526;-77
2022/01/19 11:06:49;;;;;;;43.95;24.25;;;;;;;;;;4868115;29;20060;-76
2022/01/19 11:09:15;;;;;;;44.70;23.80;;;;;;;;;;4864837;29;20120;-77
2022/01/19 11:11:44;;;;;;;43.33;23.73;;;;;;;;;;4879936;29;20430;-76
2022/01/19 11:14:15;;;;;;;38.92;21.80;;;;;;;;;;4879602;29;20073;-77
2022/01/19 11:16:42;;;;;;;38.40;21.92;;;;;;;;;;4877816;29;20111;-76
2022/01/19 11:19:08;;;;;;;32.85;19.45;;;;;;;;;;4879501;29;20049;-74
2022/01/19 11:21:37;;;;;;;34.22;17.30;;;;;;;;;;4879333;29;20121;-75
2022/01/19 11:24:13;;;;;;;33.50;17.02;;;;;;;;;;4879440;29;20056;-76
2022/01/19 11:26:39;;;;;;;30.45;16.20;;;;;;;;;;4879705;29;20063;-76
2022/01/19 11:29:13;;;;;;;29.15;12.90;;;;;;;;;;4880085;29;20041;-74
2022/01/19 11:31:40;;;;;;;23.00;10.95;;;;;;;;;;4879013;29;20112;-75
2022/01/19 11:34:06;;;;;;;18.38;10.05;;;;;;;;;;4878317;29;20516;-75
2022/01/19 11:36:36;;;;;;;19.38;9.18;;;;;;;;;;4879875;29;20115;-76
2022/01/19 11:39:02;;;;;;;19.85;9.35;;;;;;;;;;4879885;29;20049;-74
2022/01/19 11:41:42;;;;;;;18.45;8.75;;;;;;;;;;4874310;29;20052;-75
2022/01/19 11:44:21;;;;;;;18.65;9.68;;;;;;;;;;4877385;29;20056;-77
2022/01/19 11:46:49;;;;;;;20.27;9.50;;;;;;;;;;4878042;29;20117;-79
2022/01/19 11:49:16;;;;;;;17.23;8.50;;;;;;;;;;4878454;29;20480;-75
2022/01/19 11:51:47;;;;;;;17.08;9.60;;;;;;;;;;4878906;29;20056;-75
2022/01/19 11:54:21;;;;;;;18.92;9.02;;;;;;;;;;4875909;29;20051;-75
2022/01/19 11:56:59;;;;;;;16.58;8.27;;;;;;;;;;4879248;29;20049;-78
2022/01/19 11:59:34;;;;;;;18.35;9.27;;;;;;;;;;4871743;29;20053;-74
2022/01/19 12:02:19;;;;;;;15.32;8.63;;;;;;;;;;4876676;29;20056;-75
2022/01/19 12:04:45;;;;;;;14.30;8.77;;;;;;;;;;4873337;29;20068;-74
2022/01/19 12:07:33;;;;;;;20.23;9.10;;;;;;;;;;4873438;29;20116;-75
2022/01/19 12:10:04;;;;;;;14.43;9.07;;;;;;;;;;4866693;29;20405;-74
2022/01/19 12:12:34;;;;;;;20.17;10.30;;;;;;;;;;4875727;29;20435;-75
2022/01/19 12:15:06;;;;;;;23.77;11.75;;;;;;;;;;4873635;29;20057;-75
2022/01/19 12:17:55;;;;;;;18.42;9.48;;;;;;;;;;4873228;29;20155;-75
2022/01/19 12:20:39;;;;;;;21.92;9.98;;;;;;;;;;4870846;29;20056;-74
2022/01/19 12:23:25;;;;;;;22.25;10.02;;;;;;;;;;4869168;29;20044;-73
2022/01/19 12:26:00;;;;;;;18.90;9.45;;;;;;;;;;4873498;29;20049;-74
2022/01/19 12:28:41;;;;;;;15.45;8.00;;;;;;;;;;4872110;29;20208;-73
2022/01/19 12:31:23;;;;;;;18.38;8.45;;;;;;;;;;4869634;29;20466;-74
2022/01/19 12:34:04;;;;;;;18.52;8.77;;;;;;;;;;4870727;29;20449;-75
2022/01/19 12:36:41;;;;;;;17.02;7.78;;;;;;;;;;4871266;29;20068;-76
2022/01/19 12:39:25;;;;;;;18.70;7.82;;;;;;;;;;4865136;29;20112;-75
2022/01/19 12:41:59;;;;;;;17.00;7.88;;;;;;;;;;4871365;29;20053;-74
2022/01/19 12:44:39;;;;;;;21.00;8.20;;;;;;;;;;4855993;29;20045;-78
2022/01/19 12:47:06;;;;;;;13.70;6.38;;;;;;;;;;4855024;29;20085;-76
2022/01/19 12:49:33;;;;;;;17.92;7.00;;;;;;;;;;4872013;29;20053;-76
2022/01/19 12:52:00;;;;;;;18.77;7.35;;;;;;;;;;4873899;29;20056;-76
2022/01/19 12:54:27;;;;;;;16.17;8.02;;;;;;;;;;4877876;29;20053;-74
2022/01/19 12:57:04;;;;;;;16.35;8.02;;;;;;;;;;4878779;29;20036;-76
2022/01/19 12:59:31;;;;;;;17.55;7.55;;;;;;;;;;4879070;29;20121;-74
2022/01/19 13:01:59;;;;;;;19.20;7.68;;;;;;;;;;4876759;29;20049;-74
2022/01/19 13:04:25;;;;;;;22.63;7.55;;;;;;;;;;4874656;29;20533;-74
2022/01/19 13:06:54;;;;;;;17.48;8.85;;;;;;;;;;4879405;29;20044;-74
2022/01/19 13:09:28;;;;;;;15.02;8.02;;;;;;;;;;4882171;29;20533;-76
2022/01/19 13:11:56;;;;;;;23.42;8.02;;;;;;;;;;4881709;29;20049;-74
2022/01/19 13:14:25;;;;;;;21.10;8.30;;;;;;;;;;4882564;29;20382;-73
2022/01/19 13:16:53;;;;;;;18.67;8.13;;;;;;;;;;4882522;29;20053;-73
2022/01/19 13:19:21;;;;;;;18.73;8.38;;;;;;;;;;4880838;29;20047;-73
2022/01/19 13:21:51;;;;;;;22.17;8.93;;;;;;;;;;4881671;29;20136;-79
2022/01/19 13:24:27;;;;;;;19.38;8.30;;;;;;;;;;4881419;29;20041;-74
2022/01/19 13:27:14;;;;;;;18.33;8.43;;;;;;;;;;4881256;29;20056;-76
2022/01/19 13:29:42;;;;;;;22.08;8.80;;;;;;;;;;4881612;29;20044;-75
2022/01/19 13:32:13;;;;;;;19.77;8.10;;;;;;;;;;4881902;29;20060;-74
2022/01/19 13:34:49;;;;;;;20.10;9.15;;;;;;;;;;4881477;29;20041;-74
2022/01/19 13:37:15;;;;;;;;;;;;;;;;;;4880063;29;20063;-73
2022/01/19 13:39:41;;;;;;;21.73;8.02;;;;;;;;;;4881901;29;19920;-74
2022/01/19 13:42:07;;;;;;;18.38;8.65;;;;;;;;;;4877885;29;20358;-72
2022/01/19 13:44:36;;;;;;;20.60;8.80;;;;;;;;;;4878139;29;20424;-74
2022/01/19 13:47:03;;;;;;;20.25;8.05;;;;;;;;;;4880838;29;20052;-75
2022/01/19 13:49:32;;;;;;;19.23;9.15;;;;;;;;;;4881312;29;20052;-75
2022/01/19 13:51:58;;;;;;;25.63;9.40;;;;;;;;;;4882533;29;20049;-72
2022/01/19 13:54:25;;;;;;;20.42;8.40;;;;;;;;;;4880027;29;20464;-74
2022/01/19 13:56:57;;;;;;;29.42;9.68;;;;;;;;;;4881249;29;20469;-75
2022/01/19 13:59:24;;;;;;;24.67;9.68;;;;;;;;;;4881424;29;20449;-74
2022/01/19 14:02:00;;;;;;;19.55;8.90;;;;;;;;;;4895300;29;20490;-73
2022/01/19 14:04:31;;;;;;;20.25;9.13;;;;;;;;;;4877119;29;20377;-74
2022/01/19 14:07:13;;;;;;;19.52;8.60;;;;;;;;;;4865560;29;20153;-76
2022/01/19 14:09:40;;;;;;;18.02;8.50;;;;;;;;;;4865935;29;20040;-74
2022/01/19 14:12:08;;;;;;;19.73;8.43;;;;;;;;;;4865727;29;20376;-74
2022/01/19 14:14:36;;;;;;;20.77;8.32;;;;;;;;;;4881779;29;20116;-74
2022/01/19 14:17:04;;;;;;;18.67;8.40;;;;;;;;;;4881552;29;20052;-76
2022/01/19 14:19:31;;;;;;;16.92;8.88;;;;;;;;;;4900164;29;20485;-81
2022/01/19 14:22:03;;;;;;;18.88;9.25;;;;;;;;;;4900782;29;20457;-74
2022/01/19 14:24:45;;;;;;;19.52;9.43;;;;;;;;;;4889153;29;20033;-73
2022/01/19 14:27:12;;;;;;;19.70;9.75;;;;;;;;;;4881274;29;20136;-74
2022/01/19 14:29:55;;;;;;;21.90;11.18;;;;;;;;;;4881017;29;20077;-75
2022/01/19 14:35:51;;;;;;;25.23;10.63;;;;;;;;;;4878307;29;20048;-75
2022/01/19 14:38:26;;;;;;;28.52;11.95;;;;;;;;;;4840982;29;20057;-75
2022/01/19 14:40:58;;;;;;;30.35;12.30;;;;;;;;;;4861942;29;20136;-76
2022/01/19 14:43:27;;;;;;;26.50;10.38;;;;;;;;;;4871245;29;20140;-77
2022/01/19 14:46:12;;;;;;;30.42;12.60;;;;;;;;;;4861748;29;20053;-75
2022/01/19 14:52:05;;;;;;;27.40;11.15;;;;;;;;;;4875488;29;20874;-75
2022/01/19 14:54:32;;;;;;;25.42;10.23;;;;;;;;;;4858853;29;20065;-77
2022/01/19 14:56:58;;;;;;;26.02;10.75;;;;;;;;;;4880046;29;20045;-78
2022/01/19 14:59:24;;;;;;;24.88;10.88;;;;;;;;;;4880052;29;20493;-77
2022/01/19 15:01:56;;;;;;;30.20;10.70;;;;;;;;;;4876629;29;20421;-78
2022/01/19 15:04:23;;;;;;;32.85;12.43;;;;;;;;;;4862438;29;20077;-77
2022/01/19 15:06:50;;;;;;;25.85;9.70;;;;;;;;;;4864625;29;20120;-80
2022/01/19 15:09:19;;;;;;;27.02;10.07;;;;;;;;;;4885027;29;20041;-78
2022/01/19 15:11:45;;;;;;;21.40;10.13;;;;;;;;;;4879084;29;20052;-79
2022/01/19 15:14:14;;;;;;;25.52;9.05;;;;;;;;;;4870453;29;20147;-78
2022/01/19 15:16:40;;;;;;;24.08;9.50;;;;;;;;;;4884526;29;20067;-77
2022/01/19 15:19:06;;;;;;;27.42;9.57;;;;;;;;;;4878962;29;20465;-78
2022/01/19 15:21:32;;;;;;;29.27;9.52;;;;;;;;;;4878587;29;20488;-78
2022/01/19 15:23:59;;;;;;;25.52;8.13;;;;;;;;;;4859442;29;20056;-78
2022/01/19 15:26:30;;;;;;;29.23;8.73;;;;;;;;;;4874336;29;20037;-77
2022/01/19 15:29:00;;;;;;;22.48;7.45;;;;;;;;;;4880160;29;20468;-78
2022/01/19 15:31:26;;;;;;;25.90;7.30;;;;;;;;;;4878923;29;20055;-76
2022/01/19 15:33:53;;;;;;;27.27;7.22;;;;;;;;;;4879727;29;20049;-78
2022/01/19 15:36:19;;;;;;;24.92;6.78;;;;;;;;;;4879610;29;20128;-76
2022/01/19 15:38:45;;;;;;;17.33;5.65;;;;;;;;;;4863735;29;20064;-77
2022/01/19 15:41:13;;;;;;;23.50;4.72;;;;;;;;;;4872239;29;20101;-76
2022/01/19 15:43:39;;;;;;;17.38;4.10;;;;;;;;;;4864352;29;20045;-76
2022/01/19 15:46:05;;;;;;;15.88;4.53;;;;;;;;;;4864001;29;20159;-76
2022/01/19 15:48:34;;;;;;;19.65;4.82;;;;;;;;;;4879122;29;20053;-76
2022/01/19 15:51:00;;;;;;;20.00;4.28;;;;;;;;;;4855506;29;20060;-77
2022/01/19 15:53:27;;;;;;;26.83;5.57;;;;;;;;;;4879124;29;20052;-76
2022/01/19 15:55:55;;;;;;;20.00;4.35;;;;;;;;;;4880107;29;20037;-76
2022/01/19 15:58:22;;;;;;;26.83;5.05;;;;;;;;;;4878021;29;20059;-76
2022/01/19 16:00:49;;;;;;;24.13;5.43;;;;;;;;;;4880437;29;20140;-75
2022/01/19 16:03:16;;;;;;;20.25;4.55;;;;;;;;;;4879462;29;20057;-76
2022/01/19 16:05:42;;;;;;;21.25;4.60;;;;;;;;;;4863733;29;20060;-75